createdAt,value
2018-09-30T00:02:24.474Z,68.14
2018-09-30T00:05:28.227Z,65.96
2018-09-30T00:08:31.793Z,64.71
2018-09-30T00:11:35.421Z,64.80
2018-09-30T00:14:38.951Z,66.64
2018-09-30T00:17:42.514Z,65.48
2018-09-30T00:20:46.068Z,65.36
2018-09-30T00:24:58.349Z,65.12
2018-09-30T00:28:01.922Z,65.70
2018-09-30T00:31:05.599Z,64.53
2018-09-30T00:34:14.434Z,65.17
2018-09-30T00:37:17.936Z,65.23
2018-09-30T00:40:21.481Z,65.90
2018-09-30T00:43:25.057Z,65.65
2018-09-30T00:46:28.551Z,66.24
2018-09-30T00:49:32.101Z,66.93
2018-09-30T00:52:35.615Z,67.71
2018-09-30T00:55:39.173Z,67.33
2018-09-30T00:58:42.844Z,68.12
2018-09-30T01:01:46.363Z,67.60
2018-09-30T01:04:49.822Z,69.60
2018-09-30T01:07:53.407Z,68.95
2018-09-30T01:10:56.942Z,69.46
2018-09-30T01:14:00.487Z,69.97
2018-09-30T01:17:04.119Z,69.70
2018-09-30T01:20:07.902Z,70.06
2018-09-30T01:23:11.550Z,71.70
2018-09-30T01:26:15.117Z,72.36
2018-09-30T01:29:18.618Z,73.17
2018-09-30T01:32:22.266Z,74.25
2018-09-30T01:35:25.753Z,75.23
2018-09-30T01:38:29.419Z,76.25
2018-09-30T01:41:32.974Z,75.63
2018-09-30T01:44:36.553Z,74.41
2018-09-30T01:47:40.065Z,74.72
2018-09-30T01:50:43.574Z,75.05
2018-09-30T01:53:47.229Z,72.55
2018-09-30T01:56:50.794Z,71.69
2018-09-30T01:59:54.347Z,73.45
2018-09-30T02:02:57.894Z,74.75
2018-09-30T02:06:01.388Z,76.56
2018-09-30T02:09:05.425Z,76.32
2018-09-30T02:12:08.975Z,76.12
2018-09-30T02:15:12.673Z,75.46
2018-09-30T02:18:16.800Z,75.12
2018-09-30T02:21:20.365Z,75.34
2018-09-30T02:24:23.848Z,76.11
2018-09-30T02:27:27.699Z,73.55
2018-09-30T02:30:31.260Z,75.20
2018-09-30T02:33:34.820Z,74.44
2018-09-30T02:36:38.505Z,73.16
2018-09-30T02:39:41.969Z,71.95
2018-09-30T02:42:45.488Z,75.07
2018-09-30T02:45:49.110Z,77.33
2018-09-30T02:48:52.679Z,76.42
2018-09-30T02:51:56.278Z,77.73
2018-09-30T02:54:59.771Z,76.86
2018-09-30T02:58:03.403Z,77.35
2018-09-30T03:01:06.981Z,78.15
2018-09-30T03:04:10.913Z,77.68
2018-09-30T03:07:19.699Z,76.62
2018-09-30T03:10:23.298Z,77.08
2018-09-30T03:13:26.925Z,79.00
2018-09-30T03:16:30.582Z,80.31
2018-09-30T03:19:34.085Z,80.54
2018-09-30T03:22:37.599Z,80.94
2018-09-30T03:25:41.362Z,80.99
2018-09-30T03:28:44.880Z,81.02
2018-09-30T03:31:48.530Z,80.57
2018-09-30T03:34:52.020Z,81.01
2018-09-30T03:37:55.528Z,81.74
2018-09-30T03:40:59.241Z,81.99
2018-09-30T03:44:03.040Z,82.14
2018-09-30T03:47:06.845Z,82.39
2018-09-30T03:50:10.448Z,82.87
2018-09-30T03:53:14.019Z,80.98
2018-09-30T03:56:17.614Z,80.78
2018-09-30T03:59:21.113Z,81.06
2018-09-30T04:02:24.624Z,80.38
2018-09-30T04:05:28.203Z,81.32
2018-09-30T04:08:31.666Z,81.80
2018-09-30T04:11:35.195Z,82.57
2018-09-30T04:14:38.734Z,82.50
2018-09-30T04:17:42.275Z,83.24
2018-09-30T04:20:45.831Z,83.50
2018-09-30T04:23:53.064Z,83.87
2018-09-30T04:26:56.617Z,84.08
2018-09-30T04:30:00.666Z,83.98
2018-09-30T04:33:04.310Z,83.45
2018-09-30T04:36:07.820Z,83.32
2018-09-30T04:39:11.319Z,82.40
2018-09-30T04:42:14.844Z,81.50
2018-09-30T04:45:18.450Z,80.03
2018-09-30T04:48:22.219Z,80.73
2018-09-30T04:51:25.701Z,81.07
2018-09-30T04:54:29.205Z,79.83
2018-09-30T04:57:32.789Z,77.96
2018-09-30T05:00:36.464Z,78.42
2018-09-30T05:03:40.408Z,79.80
2018-09-30T05:06:43.918Z,80.11
2018-09-30T05:09:47.521Z,80.96
2018-09-30T05:12:51.078Z,81.63
2018-09-30T05:15:55.378Z,82.39
2018-09-30T05:18:58.838Z,83.44
2018-09-30T05:22:02.491Z,83.70
2018-09-30T05:25:06.061Z,84.32
2018-09-30T05:28:09.659Z,84.44
2018-09-30T05:31:13.188Z,84.15
2018-09-30T05:34:16.664Z,83.77
2018-09-30T05:37:20.241Z,83.50
2018-09-30T05:40:23.821Z,82.79
2018-09-30T05:43:27.399Z,81.54
2018-09-30T05:46:31.180Z,80.82
2018-09-30T05:49:34.676Z,75.32
2018-09-30T05:52:38.332Z,73.98
2018-09-30T05:55:42.021Z,71.76
2018-09-30T05:58:45.631Z,69.87
2018-09-30T06:01:49.208Z,71.68
2018-09-30T06:04:52.881Z,71.00
2018-09-30T06:07:56.541Z,70.68
2018-09-30T06:11:00.195Z,68.89
2018-09-30T06:14:03.855Z,68.97
2018-09-30T06:17:07.516Z,69.72
2018-09-30T06:20:11.213Z,68.09
2018-09-30T06:23:14.761Z,68.86
2018-09-30T06:26:18.320Z,69.52
2018-09-30T06:29:22.225Z,69.22
2018-09-30T06:32:26.587Z,68.79
2018-09-30T06:35:30.093Z,67.52
2018-09-30T06:38:33.655Z,67.76
2018-09-30T06:41:37.382Z,68.13
2018-09-30T06:44:40.910Z,67.91
2018-09-30T06:47:44.556Z,67.10
2018-09-30T06:50:48.126Z,68.05
2018-09-30T06:53:51.604Z,67.41
2018-09-30T06:56:55.207Z,67.66
2018-09-30T06:59:58.765Z,68.86
2018-09-30T07:03:02.415Z,67.28
2018-09-30T07:06:05.973Z,66.91
2018-09-30T07:09:09.764Z,68.16
2018-09-30T07:12:13.569Z,66.36
2018-09-30T07:15:17.192Z,66.86
2018-09-30T07:18:20.932Z,65.79
2018-09-30T07:21:24.532Z,65.61
2018-09-30T07:24:28.172Z,64.93
2018-09-30T07:27:32.476Z,65.09
2018-09-30T07:30:36.196Z,65.75
2018-09-30T07:33:40.504Z,65.26
2018-09-30T07:36:43.994Z,64.48
2018-09-30T07:39:47.618Z,65.58
2018-09-30T07:42:51.553Z,64.56
2018-09-30T07:45:55.146Z,65.82
2018-09-30T07:48:58.757Z,66.41
2018-09-30T07:52:02.356Z,66.60
2018-09-30T07:55:06.003Z,65.75
2018-09-30T07:58:09.544Z,65.90
2018-09-30T08:01:13.113Z,66.54
2018-09-30T08:04:16.781Z,65.99
2018-09-30T08:07:20.273Z,65.77
2018-09-30T08:10:23.885Z,64.81
2018-09-30T08:13:27.515Z,66.15
2018-09-30T08:16:31.337Z,61.85
2018-09-30T08:19:34.872Z,62.00
2018-09-30T08:22:38.520Z,63.48
2018-09-30T08:25:42.032Z,64.16
2018-09-30T08:28:45.671Z,64.29
2018-09-30T08:31:49.228Z,65.61
2018-09-30T08:34:53.006Z,66.51
2018-09-30T08:38:01.640Z,67.72
2018-09-30T08:41:08.213Z,66.15
2018-09-30T08:44:11.852Z,65.48
2018-09-30T08:47:15.606Z,63.71
2018-09-30T08:50:19.206Z,63.88
2018-09-30T08:53:23.303Z,64.03
2018-09-30T08:56:26.869Z,63.13
2018-09-30T08:59:30.402Z,63.55
2018-09-30T09:02:34.031Z,62.90
2018-09-30T09:05:38.525Z,62.66
2018-09-30T09:08:42.131Z,61.19
2018-09-30T09:11:45.768Z,61.66
2018-09-30T09:14:49.377Z,62.68
2018-09-30T09:17:53.009Z,61.78
2018-09-30T09:20:56.650Z,60.70
2018-09-30T09:24:00.326Z,61.41
2018-09-30T09:27:04.140Z,61.47
2018-09-30T09:30:08.059Z,60.85
2018-09-30T09:33:11.658Z,62.13
2018-09-30T09:36:15.233Z,62.23
2018-09-30T09:39:19.013Z,61.68
2018-09-30T09:42:22.605Z,62.06
2018-09-30T09:45:26.215Z,61.54
2018-09-30T09:48:29.852Z,60.01
2018-09-30T09:51:33.555Z,60.40
2018-09-30T09:54:37.137Z,60.44
2018-09-30T09:57:40.889Z,57.76
2018-09-30T10:00:45.793Z,59.59
2018-09-30T10:03:49.506Z,59.20
2018-09-30T10:06:53.150Z,62.20
2018-09-30T10:09:56.910Z,60.80
2018-09-30T10:13:00.918Z,59.56
2018-09-30T10:16:04.860Z,57.49
2018-09-30T10:19:08.741Z,58.11
2018-09-30T10:22:12.445Z,58.51
2018-09-30T10:25:16.159Z,55.92
2018-09-30T10:28:19.941Z,56.67
2018-09-30T10:31:23.613Z,59.52
2018-09-30T10:34:27.317Z,55.93
2018-09-30T10:37:30.966Z,55.66
2018-09-30T10:40:34.687Z,54.96
2018-09-30T10:43:38.453Z,59.66
2018-09-30T10:46:42.092Z,55.71
2018-09-30T10:49:46.229Z,56.73
2018-09-30T10:52:49.969Z,55.32
2018-09-30T10:55:53.753Z,60.32
2018-09-30T10:58:57.522Z,55.73
2018-09-30T11:02:01.235Z,58.53
2018-09-30T11:05:04.899Z,58.08
2018-09-30T11:08:08.575Z,53.15
2018-09-30T11:11:12.159Z,53.70
2018-09-30T11:14:15.851Z,53.93
2018-09-30T11:17:19.584Z,53.11
2018-09-30T11:20:23.341Z,53.15
2018-09-30T11:23:26.998Z,52.63
2018-09-30T11:26:30.636Z,52.83
2018-09-30T11:29:34.315Z,51.98
2018-09-30T11:32:38.129Z,52.25
2018-09-30T11:35:41.720Z,52.25
2018-09-30T11:38:45.430Z,55.84
2018-09-30T11:41:49.105Z,56.24
2018-09-30T11:44:52.807Z,51.06
2018-09-30T11:47:56.740Z,49.61
2018-09-30T11:51:00.420Z,50.87
2018-09-30T11:54:04.855Z,51.08
2018-09-30T11:57:08.651Z,49.35
2018-09-30T12:00:12.464Z,50.23
2018-09-30T12:03:16.137Z,50.28
2018-09-30T12:06:20.106Z,49.61
2018-09-30T12:09:23.707Z,47.39
2018-09-30T12:12:27.354Z,47.42
2018-09-30T12:15:31.037Z,49.68
2018-09-30T12:18:34.623Z,48.15
2018-09-30T12:21:38.372Z,46.52
2018-09-30T12:24:41.910Z,46.65
2018-09-30T12:27:45.454Z,47.12
2018-09-30T12:30:49.067Z,47.63
2018-09-30T12:33:52.780Z,47.74
2018-09-30T12:36:56.392Z,46.69
2018-09-30T12:40:00.019Z,45.62
2018-09-30T12:43:10.125Z,45.82
2018-09-30T12:46:14.145Z,44.75
2018-09-30T12:49:17.790Z,44.74
2018-09-30T12:52:21.398Z,44.37
2018-09-30T12:55:25.132Z,43.69
2018-09-30T12:58:28.690Z,41.11
2018-09-30T13:01:32.286Z,40.16
2018-09-30T13:04:35.779Z,40.45
2018-09-30T13:07:39.453Z,39.25
2018-09-30T13:10:42.936Z,40.43
2018-09-30T13:13:46.529Z,40.54
2018-09-30T13:16:50.175Z,38.80
2018-09-30T13:19:53.726Z,41.35
2018-09-30T13:22:57.281Z,40.89
2018-09-30T13:26:00.786Z,38.24
2018-09-30T13:29:04.436Z,37.87
2018-09-30T13:32:07.987Z,37.23
2018-09-30T13:35:11.558Z,36.70
2018-09-30T13:38:15.079Z,39.36
2018-09-30T13:41:18.807Z,37.91
2018-09-30T13:44:22.481Z,38.60
2018-09-30T13:47:26.121Z,39.15
2018-09-30T13:50:29.589Z,39.10
2018-09-30T13:53:33.176Z,40.55
2018-09-30T13:56:36.722Z,39.43
2018-09-30T13:59:40.307Z,37.24
2018-09-30T14:02:43.838Z,37.89
2018-09-30T14:05:47.563Z,39.38
2018-09-30T14:08:51.152Z,37.54
2018-09-30T14:11:54.622Z,37.24
2018-09-30T14:14:58.849Z,37.88
2018-09-30T14:18:02.313Z,38.54
2018-09-30T14:21:05.940Z,41.88
2018-09-30T14:24:09.693Z,41.69
2018-09-30T14:27:13.532Z,38.80
2018-09-30T14:30:17.064Z,40.90
2018-09-30T14:33:20.675Z,44.24
2018-09-30T14:36:25.167Z,46.97
2018-09-30T14:39:28.737Z,46.07
2018-09-30T14:42:32.328Z,48.51
2018-09-30T14:45:35.807Z,47.64
2018-09-30T14:48:39.461Z,43.64
2018-09-30T14:51:43.060Z,45.67
2018-09-30T14:54:46.579Z,45.33
2018-09-30T14:57:50.176Z,43.50
2018-09-30T15:00:53.684Z,44.69
2018-09-30T15:03:57.253Z,44.79
2018-09-30T15:07:00.850Z,45.71
2018-09-30T15:10:04.581Z,44.51
2018-09-30T15:13:08.212Z,45.06
2018-09-30T15:16:12.026Z,46.98
2018-09-30T15:19:15.542Z,48.13
2018-09-30T15:22:19.046Z,47.53
2018-09-30T15:25:22.644Z,49.88
2018-09-30T15:28:26.146Z,51.21
2018-09-30T15:31:29.689Z,50.06
2018-09-30T15:34:33.373Z,47.95
2018-09-30T15:37:37.032Z,48.23
2018-09-30T15:40:40.622Z,48.16
2018-09-30T15:43:47.149Z,49.93
2018-09-30T15:46:50.700Z,48.49
2018-09-30T15:49:54.306Z,48.69
2018-09-30T15:52:57.890Z,48.91
2018-09-30T15:56:01.573Z,48.79
2018-09-30T15:59:05.123Z,49.55
2018-09-30T16:02:08.840Z,50.63
2018-09-30T16:05:12.455Z,51.61
2018-09-30T16:08:15.943Z,51.87
2018-09-30T16:11:19.600Z,52.68
2018-09-30T16:14:23.170Z,52.53
2018-09-30T16:17:26.758Z,53.02
2018-09-30T16:20:30.329Z,53.60
2018-09-30T16:23:34.236Z,53.76
2018-09-30T16:26:37.863Z,53.88
2018-09-30T16:29:41.506Z,54.18
2018-09-30T16:32:45.020Z,55.34
2018-09-30T16:35:48.568Z,55.79
2018-09-30T16:38:52.167Z,56.50
2018-09-30T16:41:55.736Z,56.18
2018-09-30T16:44:59.367Z,55.99
2018-09-30T16:48:03.072Z,54.23
2018-09-30T16:51:07.092Z,54.17
2018-09-30T16:54:10.815Z,53.67
2018-09-30T16:57:14.408Z,55.10
2018-09-30T17:00:18.112Z,56.01
2018-09-30T17:03:21.885Z,56.13
2018-09-30T17:06:25.467Z,57.45
2018-09-30T17:09:29.104Z,57.79
2018-09-30T17:12:32.744Z,59.01
2018-09-30T17:15:36.443Z,58.75
2018-09-30T17:18:40.020Z,59.18
2018-09-30T17:21:43.735Z,59.53
2018-09-30T17:24:50.229Z,58.59
2018-09-30T17:27:53.904Z,58.37
2018-09-30T17:30:57.496Z,58.36
2018-09-30T17:34:01.077Z,57.77
2018-09-30T17:37:04.803Z,60.19
2018-09-30T17:40:08.587Z,58.92
2018-09-30T17:43:12.172Z,57.95
2018-09-30T17:46:15.873Z,58.21
2018-09-30T17:49:19.465Z,59.20
2018-09-30T17:52:23.291Z,59.46
2018-09-30T17:55:26.974Z,60.24
2018-09-30T17:58:30.718Z,60.69
2018-09-30T18:01:34.442Z,60.86
2018-09-30T18:04:38.030Z,61.08
2018-09-30T18:07:41.657Z,60.09
2018-09-30T18:10:45.249Z,61.58
2018-09-30T18:13:48.814Z,61.84
2018-09-30T18:16:52.605Z,62.78
2018-09-30T18:19:56.316Z,62.96
2018-09-30T18:22:59.958Z,63.13
2018-09-30T18:26:03.556Z,62.20
2018-09-30T18:29:07.530Z,63.10
2018-09-30T18:32:11.232Z,63.77
2018-09-30T18:35:15.177Z,64.22
2018-09-30T18:38:19.140Z,63.51
2018-09-30T18:41:23.121Z,63.48
2018-09-30T18:44:27.089Z,61.64
2018-09-30T18:47:30.936Z,61.80
2018-09-30T18:50:35.185Z,63.07
2018-09-30T18:53:39.223Z,60.46
2018-09-30T18:56:44.323Z,63.02
2018-09-30T18:59:48.205Z,62.65
2018-09-30T19:02:52.360Z,63.61
2018-09-30T19:05:56.280Z,64.31
2018-09-30T19:09:00.356Z,64.22
2018-09-30T19:12:04.623Z,64.31
2018-09-30T19:15:08.668Z,64.71
2018-09-30T19:18:12.641Z,64.46
2018-09-30T19:21:16.606Z,64.83
2018-09-30T19:24:20.370Z,65.38
2018-09-30T19:27:24.083Z,65.52
2018-09-30T19:30:27.786Z,64.45
2018-09-30T19:33:31.506Z,65.70
2018-09-30T19:36:35.217Z,64.54
2018-09-30T19:39:38.857Z,65.41
2018-09-30T19:42:42.597Z,66.12
2018-09-30T19:45:46.199Z,65.35
2018-09-30T19:48:50.136Z,66.56
2018-09-30T19:51:53.707Z,67.41
2018-09-30T19:54:57.355Z,67.18
2018-09-30T19:58:00.968Z,67.60
2018-09-30T20:01:04.802Z,68.44
2018-09-30T20:04:08.474Z,69.18
2018-09-30T20:07:12.185Z,69.62
2018-09-30T20:10:15.800Z,69.76
2018-09-30T20:13:19.511Z,70.49
2018-09-30T20:16:23.236Z,67.73
2018-09-30T20:19:26.863Z,68.42
2018-09-30T20:22:30.484Z,68.36
2018-09-30T20:25:40.389Z,67.65
2018-09-30T20:28:44.033Z,66.12
2018-09-30T20:31:47.655Z,65.74
2018-09-30T20:34:51.299Z,64.95
2018-09-30T20:37:54.923Z,63.64
2018-09-30T20:40:58.618Z,64.62
2018-09-30T20:44:02.254Z,65.33
2018-09-30T20:47:05.989Z,63.00
2018-09-30T20:50:09.626Z,64.51
2018-09-30T20:53:13.291Z,63.71
2018-09-30T20:56:17.063Z,64.42
2018-09-30T20:59:20.626Z,64.89
2018-09-30T21:02:24.297Z,66.28
2018-09-30T21:05:39.215Z,65.69
2018-09-30T21:08:43.237Z,65.98
2018-09-30T21:11:47.006Z,67.46
2018-09-30T21:14:50.552Z,67.33
2018-09-30T21:17:54.136Z,67.78
2018-09-30T21:20:57.736Z,67.80
2018-09-30T21:24:01.271Z,68.77
2018-09-30T21:27:04.950Z,68.81
2018-09-30T21:30:08.587Z,68.31
2018-09-30T21:33:12.225Z,69.34
2018-09-30T21:36:15.780Z,69.88
2018-09-30T21:39:19.355Z,69.61
2018-09-30T21:42:22.838Z,69.52
2018-09-30T21:45:26.388Z,69.50
2018-09-30T21:48:29.988Z,69.00
2018-09-30T21:51:33.798Z,69.31
2018-09-30T21:54:37.418Z,69.47
2018-09-30T21:57:40.991Z,69.78
2018-09-30T22:01:00.186Z,69.46
2018-09-30T22:04:03.836Z,69.08
2018-09-30T22:07:07.640Z,69.35
2018-09-30T22:10:11.252Z,69.04
2018-09-30T22:13:14.958Z,68.95
2018-09-30T22:16:18.567Z,69.87
2018-09-30T22:19:22.149Z,68.71
2018-09-30T22:22:25.725Z,68.81
2018-09-30T22:25:29.259Z,68.09
2018-09-30T22:28:32.873Z,68.59
2018-09-30T22:31:36.473Z,70.55
2018-09-30T22:34:39.984Z,70.97
2018-09-30T22:37:43.502Z,71.87
2018-09-30T22:40:47.033Z,71.56
2018-09-30T22:43:50.587Z,72.11
2018-09-30T22:46:54.091Z,73.11
2018-09-30T22:49:57.641Z,73.83
2018-09-30T22:53:01.176Z,73.68
2018-09-30T22:56:04.703Z,73.85
2018-09-30T22:59:08.218Z,73.72
2018-09-30T23:02:11.732Z,74.21
2018-09-30T23:05:15.346Z,74.33
2018-09-30T23:08:18.903Z,74.49
2018-09-30T23:11:22.472Z,74.37
2018-09-30T23:14:25.971Z,74.50
2018-09-30T23:17:29.503Z,74.43
2018-09-30T23:20:33.028Z,74.21
2018-09-30T23:23:36.607Z,74.97
2018-09-30T23:26:40.238Z,74.96
2018-09-30T23:29:43.739Z,74.87
2018-09-30T23:32:47.162Z,75.13
2018-09-30T23:35:50.664Z,75.94
2018-09-30T23:38:54.372Z,76.23
2018-09-30T23:41:57.954Z,77.34
2018-09-30T23:45:01.497Z,77.87
2018-09-30T23:48:05.047Z,78.31
2018-09-30T23:51:08.571Z,78.94
2018-09-30T23:54:12.293Z,79.32
2018-09-30T23:57:15.788Z,79.54
